sensor_id;sensor_type;location;lat;lon;timestamp;temperature;humidity
33815;DHT22;20121;51.910;8.406;2023-04-03T00:00:04;3.20;99.90
33815;DHT22;20121;51.910;8.406;2023-04-03T00:02:30;3.10;99.90
33815;DHT22;20121;51.910;8.406;2023-04-03T00:04:56;3.10;99.90
33815;DHT22;20121;51.910;8.406;2023-04-03T00:07:22;3.10;99.90
33815;DHT22;20121;51.910;8.406;2023-04-03T00:09:47;3.10;99.90
33815;DHT22;20121;51.910;8.406;2023-04-03T00:12:13;3.10;99.90
33815;DHT22;20121;51.910;8.406;2023-04-03T00:14:39;3.00;99.90
33815;DHT22;20121;51.910;8.406;2023-04-03T00:17:04;3.00;99.90
33815;DHT22;20121;51.910;8.406;2023-04-03T00:19:30;3.00;99.90
33815;DHT22;20121;51.910;8.406;2023-04-03T00:21:56;2.90;99.90
33815;DHT22;20121;51.910;8.406;2023-04-03T00:24:21;2.90;99.90
33815;DHT22;20121;51.910;8.406;2023-04-03T00:26:47;2.90;99.90
33815;DHT22;20121;51.910;8.406;2023-04-03T00:29:13;2.80;99.90
33815;DHT22;20121;51.910;8.406;2023-04-03T00:31:38;2.80;99.90
33815;DHT22;20121;51.910;8.406;2023-04-03T00:34:04;2.70;99.90
33815;DHT22;20121;51.910;8.406;2023-04-03T00:36:30;2.80;99.90
33815;DHT22;20121;51.910;8.406;2023-04-03T00:38:55;2.70;99.90
33815;DHT22;20121;51.910;8.406;2023-04-03T00:41:21;2.70;99.90
33815;DHT22;20121;51.910;8.406;2023-04-03T00:46:13;2.60;99.90
33815;DHT22;20121;51.910;8.406;2023-04-03T00:48:42;2.60;99.90
33815;DHT22;20121;51.910;8.406;2023-04-03T00:51:13;2.50;99.90
33815;DHT22;20121;51.910;8.406;2023-04-03T00:53:43;2.50;99.90
33815;DHT22;20121;51.910;8.406;2023-04-03T00:56:12;2.50;99.90
33815;DHT22;20121;51.910;8.406;2023-04-03T00:58:47;2.50;99.90
33815;DHT22;20121;51.910;8.406;2023-04-03T01:01:16;2.40;99.90
33815;DHT22;20121;51.910;8.406;2023-04-03T01:03:43;2.40;99.90
33815;DHT22;20121;51.910;8.406;2023-04-03T01:06:09;2.40;99.90
33815;DHT22;20121;51.910;8.406;2023-04-03T01:08:35;2.30;99.90
33815;DHT22;20121;51.910;8.406;2023-04-03T01:11:01;2.30;99.90
33815;DHT22;20121;51.910;8.406;2023-04-03T01:13:32;2.30;99.90
33815;DHT22;20121;51.910;8.406;2023-04-03T01:16:01;2.30;99.90
33815;DHT22;20121;51.910;8.406;2023-04-03T01:18:28;2.20;99.90
33815;DHT22;20121;51.910;8.406;2023-04-03T01:26:03;1.80;99.90
33815;DHT22;20121;51.910;8.406;2023-04-03T01:28:35;2.10;99.90
33815;DHT22;20121;51.910;8.406;2023-04-03T01:31:19;2.10;99.90
33815;DHT22;20121;51.910;8.406;2023-04-03T01:33:46;2.00;99.90
33815;DHT22;20121;51.910;8.406;2023-04-03T01:36:27;2.00;99.90
33815;DHT22;20121;51.910;8.406;2023-04-03T01:38:54;2.00;99.90
33815;DHT22;20121;51.910;8.406;2023-04-03T01:41:20;1.90;99.90
33815;DHT22;20121;51.910;8.406;2023-04-03T01:43:47;1.90;99.90
33815;DHT22;20121;51.910;8.406;2023-04-03T01:46:13;1.80;99.90
33815;DHT22;20121;51.910;8.406;2023-04-03T01:48:39;1.80;99.90
33815;DHT22;20121;51.910;8.406;2023-04-03T01:51:05;1.80;99.90
33815;DHT22;20121;51.910;8.406;2023-04-03T01:53:31;1.80;99.90
33815;DHT22;20121;51.910;8.406;2023-04-03T01:55:56;1.70;99.90
33815;DHT22;20121;51.910;8.406;2023-04-03T01:58:22;1.70;99.90
33815;DHT22;20121;51.910;8.406;2023-04-03T02:00:48;1.70;99.90
33815;DHT22;20121;51.910;8.406;2023-04-03T02:03:13;1.70;99.90
33815;DHT22;20121;51.910;8.406;2023-04-03T02:05:40;1.60;99.90
33815;DHT22;20121;51.910;8.406;2023-04-03T02:08:05;1.50;99.90
33815;DHT22;20121;51.910;8.406;2023-04-03T02:10:32;1.50;99.90
33815;DHT22;20121;51.910;8.406;2023-04-03T02:12:58;1.60;99.90
33815;DHT22;20121;51.910;8.406;2023-04-03T02:15:23;1.40;99.90
33815;DHT22;20121;51.910;8.406;2023-04-03T02:17:49;1.40;99.90
33815;DHT22;20121;51.910;8.406;2023-04-03T02:20:15;1.20;99.90
33815;DHT22;20121;51.910;8.406;2023-04-03T02:22:41;1.00;99.90
33815;DHT22;20121;51.910;8.406;2023-04-03T02:25:06;1.40;99.90
33815;DHT22;20121;51.910;8.406;2023-04-03T02:27:32;1.40;99.90
33815;DHT22;20121;51.910;8.406;2023-04-03T02:29:58;1.40;99.90
33815;DHT22;20121;51.910;8.406;2023-04-03T02:32:23;1.30;99.90
33815;DHT22;20121;51.910;8.406;2023-04-03T02:34:49;1.30;99.90
33815;DHT22;20121;51.910;8.406;2023-04-03T02:37:15;1.20;99.90
33815;DHT22;20121;51.910;8.406;2023-04-03T02:39:41;1.30;99.90
33815;DHT22;20121;51.910;8.406;2023-04-03T02:42:06;1.30;99.90
33815;DHT22;20121;51.910;8.406;2023-04-03T02:44:32;1.20;99.90
33815;DHT22;20121;51.910;8.406;2023-04-03T02:46:58;1.20;99.90
33815;DHT22;20121;51.910;8.406;2023-04-03T02:49:24;1.20;99.90
33815;DHT22;20121;51.910;8.406;2023-04-03T02:51:49;1.20;99.90
33815;DHT22;20121;51.910;8.406;2023-04-03T02:54:16;1.20;99.90
33815;DHT22;20121;51.910;8.406;2023-04-03T02:56:42;1.10;99.90
33815;DHT22;20121;51.910;8.406;2023-04-03T02:59:07;1.10;99.90
33815;DHT22;20121;51.910;8.406;2023-04-03T03:01:33;1.10;99.90
33815;DHT22;20121;51.910;8.406;2023-04-03T03:04:00;1.10;99.90
33815;DHT22;20121;51.910;8.406;2023-04-03T03:06:26;1.00;99.90
33815;DHT22;20121;51.910;8.406;2023-04-03T03:08:52;1.00;99.90
33815;DHT22;20121;51.910;8.406;2023-04-03T03:11:17;1.00;99.90
33815;DHT22;20121;51.910;8.406;2023-04-03T03:13:43;1.00;99.90
33815;DHT22;20121;51.910;8.406;2023-04-03T03:16:09;0.90;99.90
33815;DHT22;20121;51.910;8.406;2023-04-03T03:18:35;0.90;99.90
33815;DHT22;20121;51.910;8.406;2023-04-03T03:23:29;0.90;99.90
33815;DHT22;20121;51.910;8.406;2023-04-03T03:25:56;0.90;99.90
33815;DHT22;20121;51.910;8.406;2023-04-03T03:28:22;0.90;99.90
33815;DHT22;20121;51.910;8.406;2023-04-03T03:30:47;0.90;99.90
33815;DHT22;20121;51.910;8.406;2023-04-03T03:33:13;0.90;99.90
33815;DHT22;20121;51.910;8.406;2023-04-03T03:35:39;0.80;99.90
33815;DHT22;20121;51.910;8.406;2023-04-03T03:38:05;0.80;99.90
33815;DHT22;20121;51.910;8.406;2023-04-03T03:40:31;0.70;99.90
33815;DHT22;20121;51.910;8.406;2023-04-03T03:42:56;0.80;99.90
33815;DHT22;20121;51.910;8.406;2023-04-03T03:45:22;0.70;99.90
33815;DHT22;20121;51.910;8.406;2023-04-03T03:47:47;0.70;99.90
33815;DHT22;20121;51.910;8.406;2023-04-03T03:50:13;0.60;99.90
33815;DHT22;20121;51.910;8.406;2023-04-03T03:52:39;0.70;99.90
33815;DHT22;20121;51.910;8.406;2023-04-03T03:55:04;0.70;99.90
33815;DHT22;20121;51.910;8.406;2023-04-03T03:57:31;0.70;99.90
33815;DHT22;20121;51.910;8.406;2023-04-03T03:59:56;0.70;99.90
33815;DHT22;20121;51.910;8.406;2023-04-03T04:02:22;0.70;99.90
33815;DHT22;20121;51.910;8.406;2023-04-03T04:04:48;0.70;99.90
33815;DHT22;20121;51.910;8.406;2023-04-03T04:07:14;0.70;99.90
33815;DHT22;20121;51.910;8.406;2023-04-03T04:09:40;0.70;99.90
33815;DHT22;20121;51.910;8.406;2023-04-03T04:12:05;0.70;99.90
33815;DHT22;20121;51.910;8.406;2023-04-03T04:14:31;0.60;99.90
33815;DHT22;20121;51.910;8.406;2023-04-03T04:16:57;0.60;99.90
33815;DHT22;20121;51.910;8.406;2023-04-03T04:19:22;0.60;99.90
33815;DHT22;20121;51.910;8.406;2023-04-03T04:21:48;0.50;99.90
33815;DHT22;20121;51.910;8.406;2023-04-03T04:24:13;0.60;99.90
33815;DHT22;20121;51.910;8.406;2023-04-03T04:26:39;0.50;99.90
33815;DHT22;20121;51.910;8.406;2023-04-03T04:29:05;0.50;99.90
33815;DHT22;20121;51.910;8.406;2023-04-03T04:31:31;0.50;99.90
33815;DHT22;20121;51.910;8.406;2023-04-03T04:33:56;0.50;99.90
33815;DHT22;20121;51.910;8.406;2023-04-03T04:36:22;0.50;99.90
33815;DHT22;20121;51.910;8.406;2023-04-03T04:38:47;0.40;99.90
33815;DHT22;20121;51.910;8.406;2023-04-03T04:41:13;0.40;99.90
33815;DHT22;20121;51.910;8.406;2023-04-03T04:43:39;0.30;99.90
33815;DHT22;20121;51.910;8.406;2023-04-03T04:46:09;0.40;99.90
33815;DHT22;20121;51.910;8.406;2023-04-03T04:48:37;0.40;99.90
33815;DHT22;20121;51.910;8.406;2023-04-03T04:51:03;0.40;99.90
33815;DHT22;20121;51.910;8.406;2023-04-03T04:53:29;0.30;99.90
33815;DHT22;20121;51.910;8.406;2023-04-03T04:55:55;0.40;99.90
33815;DHT22;20121;51.910;8.406;2023-04-03T05:00:47;0.30;99.90
33815;DHT22;20121;51.910;8.406;2023-04-03T05:03:13;0.30;99.90
33815;DHT22;20121;51.910;8.406;2023-04-03T05:05:38;0.30;99.90
33815;DHT22;20121;51.910;8.406;2023-04-03T05:08:04;0.20;99.90
33815;DHT22;20121;51.910;8.406;2023-04-03T05:10:31;0.40;99.90
33815;DHT22;20121;51.910;8.406;2023-04-03T05:12:57;0.20;99.90
33815;DHT22;20121;51.910;8.406;2023-04-03T05:15:23;0.30;99.90
33815;DHT22;20121;51.910;8.406;2023-04-03T05:17:48;0.30;99.90
33815;DHT22;20121;51.910;8.406;2023-04-03T05:20:14;0.40;99.90
33815;DHT22;20121;51.910;8.406;2023-04-03T05:22:40;0.20;99.90
33815;DHT22;20121;51.910;8.406;2023-04-03T05:25:06;0.20;99.90
33815;DHT22;20121;51.910;8.406;2023-04-03T05:27:32;0.20;99.90
33815;DHT22;20121;51.910;8.406;2023-04-03T05:29:57;0.30;99.90
33815;DHT22;20121;51.910;8.406;2023-04-03T05:32:24;0.30;99.90
33815;DHT22;20121;51.910;8.406;2023-04-03T05:34:51;0.20;99.90
33815;DHT22;20121;51.910;8.406;2023-04-03T05:37:17;0.30;99.90
33815;DHT22;20121;51.910;8.406;2023-04-03T05:39:42;0.30;99.90
33815;DHT22;20121;51.910;8.406;2023-04-03T05:42:08;0.30;99.90
33815;DHT22;20121;51.910;8.406;2023-04-03T05:44:34;0.40;99.90
33815;DHT22;20121;51.910;8.406;2023-04-03T05:47:00;0.70;99.90
33815;DHT22;20121;51.910;8.406;2023-04-03T05:49:26;1.00;99.90
33815;DHT22;20121;51.910;8.406;2023-04-03T05:51:51;1.20;99.90
33815;DHT22;20121;51.910;8.406;2023-04-03T05:54:28;1.40;99.90
33815;DHT22;20121;51.910;8.406;2023-04-03T05:56:54;1.60;99.90
33815;DHT22;20121;51.910;8.406;2023-04-03T05:59:20;1.70;99.90
33815;DHT22;20121;51.910;8.406;2023-04-03T06:01:46;1.80;99.90
33815;DHT22;20121;51.910;8.406;2023-04-03T06:04:12;2.00;99.90
33815;DHT22;20121;51.910;8.406;2023-04-03T06:06:49;2.10;99.90
33815;DHT22;20121;51.910;8.406;2023-04-03T06:09:18;2.20;99.90
33815;DHT22;20121;51.910;8.406;2023-04-03T06:11:44;2.30;99.90
33815;DHT22;20121;51.910;8.406;2023-04-03T06:14:10;2.40;99.90
33815;DHT22;20121;51.910;8.406;2023-04-03T06:16:36;2.50;99.90
33815;DHT22;20121;51.910;8.406;2023-04-03T06:19:02;2.60;99.90
33815;DHT22;20121;51.910;8.406;2023-04-03T06:21:29;2.80;99.90
33815;DHT22;20121;51.910;8.406;2023-04-03T06:23:55;2.90;99.90
33815;DHT22;20121;51.910;8.406;2023-04-03T06:26:21;2.90;99.90
33815;DHT22;20121;51.910;8.406;2023-04-03T06:28:47;3.00;99.90
33815;DHT22;20121;51.910;8.406;2023-04-03T06:31:13;3.10;99.90
33815;DHT22;20121;51.910;8.406;2023-04-03T06:33:38;3.20;99.90
33815;DHT22;20121;51.910;8.406;2023-04-03T06:36:05;3.30;99.90
33815;DHT22;20121;51.910;8.406;2023-04-03T06:38:32;3.30;99.90
33815;DHT22;20121;51.910;8.406;2023-04-03T06:40:58;3.30;99.90
33815;DHT22;20121;51.910;8.406;2023-04-03T06:43:24;3.30;99.90
33815;DHT22;20121;51.910;8.406;2023-04-03T06:45:50;3.40;99.90
33815;DHT22;20121;51.910;8.406;2023-04-03T06:48:16;3.50;99.90
33815;DHT22;20121;51.910;8.406;2023-04-03T06:50:42;3.60;99.90
33815;DHT22;20121;51.910;8.406;2023-04-03T06:53:08;3.60;99.90
33815;DHT22;20121;51.910;8.406;2023-04-03T06:55:34;3.60;99.90
33815;DHT22;20121;51.910;8.406;2023-04-03T06:58:01;3.70;99.90
33815;DHT22;20121;51.910;8.406;2023-04-03T07:00:27;3.70;99.90
33815;DHT22;20121;51.910;8.406;2023-04-03T07:02:53;3.70;99.90
33815;DHT22;20121;51.910;8.406;2023-04-03T07:05:19;3.80;99.90
33815;DHT22;20121;51.910;8.406;2023-04-03T07:07:44;3.90;99.90
33815;DHT22;20121;51.910;8.406;2023-04-03T07:10:10;4.00;99.90
33815;DHT22;20121;51.910;8.406;2023-04-03T07:12:37;4.00;99.90
33815;DHT22;20121;51.910;8.406;2023-04-03T07:15:04;4.10;99.90
33815;DHT22;20121;51.910;8.406;2023-04-03T07:17:30;4.20;99.90
33815;DHT22;20121;51.910;8.406;2023-04-03T07:19:56;4.40;99.90
33815;DHT22;20121;51.910;8.406;2023-04-03T07:22:22;4.50;99.90
33815;DHT22;20121;51.910;8.406;2023-04-03T07:24:47;4.70;99.90
33815;DHT22;20121;51.910;8.406;2023-04-03T07:27:13;4.80;99.90
33815;DHT22;20121;51.910;8.406;2023-04-03T07:29:39;4.80;99.90
33815;DHT22;20121;51.910;8.406;2023-04-03T07:32:05;4.80;99.90
33815;DHT22;20121;51.910;8.406;2023-04-03T07:34:31;4.90;99.70
33815;DHT22;20121;51.910;8.406;2023-04-03T07:36:58;4.90;98.70
33815;DHT22;20121;51.910;8.406;2023-04-03T07:39:24;4.90;99.00
33815;DHT22;20121;51.910;8.406;2023-04-03T07:41:50;5.00;99.50
33815;DHT22;20121;51.910;8.406;2023-04-03T07:44:15;5.20;99.10
33815;DHT22;20121;51.910;8.406;2023-04-03T07:46:41;5.30;98.90
33815;DHT22;20121;51.910;8.406;2023-04-03T07:49:07;5.40;98.40
33815;DHT22;20121;51.910;8.406;2023-04-03T07:51:33;5.40;98.00
33815;DHT22;20121;51.910;8.406;2023-04-03T07:53:59;5.50;97.90
33815;DHT22;20121;51.910;8.406;2023-04-03T07:56:24;5.50;97.40
33815;DHT22;20121;51.910;8.406;2023-04-03T07:58:50;5.60;97.00
33815;DHT22;20121;51.910;8.406;2023-04-03T08:01:25;5.60;96.60
33815;DHT22;20121;51.910;8.406;2023-04-03T08:03:54;5.70;95.80
33815;DHT22;20121;51.910;8.406;2023-04-03T08:06:20;5.70;95.50
33815;DHT22;20121;51.910;8.406;2023-04-03T08:08:45;5.80;96.00
33815;DHT22;20121;51.910;8.406;2023-04-03T08:11:11;6.20;99.90
33815;DHT22;20121;51.910;8.406;2023-04-03T08:13:38;6.00;94.90
33815;DHT22;20121;51.910;8.406;2023-04-03T08:16:17;6.20;94.80
33815;DHT22;20121;51.910;8.406;2023-04-03T08:18:43;6.30;93.40
33815;DHT22;20121;51.910;8.406;2023-04-03T08:21:10;6.40;92.60
33815;DHT22;20121;51.910;8.406;2023-04-03T08:23:37;6.50;92.70
33815;DHT22;20121;51.910;8.406;2023-04-03T08:26:08;6.60;92.30
33815;DHT22;20121;51.910;8.406;2023-04-03T08:28:34;6.70;92.60
33815;DHT22;20121;51.910;8.406;2023-04-03T08:31:03;6.90;91.10
33815;DHT22;20121;51.910;8.406;2023-04-03T08:33:31;7.00;90.70
33815;DHT22;20121;51.910;8.406;2023-04-03T08:35:57;7.10;91.00
33815;DHT22;20121;51.910;8.406;2023-04-03T08:38:22;7.30;91.30
33815;DHT22;20121;51.910;8.406;2023-04-03T08:41:04;7.40;90.80
33815;DHT22;20121;51.910;8.406;2023-04-03T08:44:03;7.60;90.60
33815;DHT22;20121;51.910;8.406;2023-04-03T08:46:38;7.70;90.20
33815;DHT22;20121;51.910;8.406;2023-04-03T08:49:13;7.80;90.10
33815;DHT22;20121;51.910;8.406;2023-04-03T08:51:43;7.80;88.40
33815;DHT22;20121;51.910;8.406;2023-04-03T08:54:26;7.90;90.10
33815;DHT22;20121;51.910;8.406;2023-04-03T08:56:53;7.80;86.90
33815;DHT22;20121;51.910;8.406;2023-04-03T08:59:24;7.90;88.20
33815;DHT22;20121;51.910;8.406;2023-04-03T09:01:52;8.00;90.10
33815;DHT22;20121;51.910;8.406;2023-04-03T09:04:18;8.00;90.60
33815;DHT22;20121;51.910;8.406;2023-04-03T09:06:48;8.10;90.60
33815;DHT22;20121;51.910;8.406;2023-04-03T09:09:25;8.20;90.70
33815;DHT22;20121;51.910;8.406;2023-04-03T09:12:10;8.30;90.00
33815;DHT22;20121;51.910;8.406;2023-04-03T09:14:49;8.30;90.80
33815;DHT22;20121;51.910;8.406;2023-04-03T09:22:51;8.50;88.60
33815;DHT22;20121;51.910;8.406;2023-04-03T09:25:23;8.60;90.00
33815;DHT22;20121;51.910;8.406;2023-04-03T09:27:49;8.70;87.80
33815;DHT22;20121;51.910;8.406;2023-04-03T09:30:20;8.80;87.50
33815;DHT22;20121;51.910;8.406;2023-04-03T09:32:49;8.70;84.90
33815;DHT22;20121;51.910;8.406;2023-04-03T09:37:48;9.00;86.60
33815;DHT22;20121;51.910;8.406;2023-04-03T09:42:53;9.20;86.90
33815;DHT22;20121;51.910;8.406;2023-04-03T09:45:37;9.30;85.90
33815;DHT22;20121;51.910;8.406;2023-04-03T09:50:35;9.50;85.50
33815;DHT22;20121;51.910;8.406;2023-04-03T09:53:29;9.50;84.10
33815;DHT22;20121;51.910;8.406;2023-04-03T09:55:53;9.50;83.80
33815;DHT22;20121;51.910;8.406;2023-04-03T09:58:27;9.50;83.90
33815;DHT22;20121;51.910;8.406;2023-04-03T10:00:59;9.40;85.90
33815;DHT22;20121;51.910;8.406;2023-04-03T10:03:33;9.60;86.60
33815;DHT22;20121;51.910;8.406;2023-04-03T10:06:02;10.00;85.70
33815;DHT22;20121;51.910;8.406;2023-04-03T10:08:34;10.20;83.30
33815;DHT22;20121;51.910;8.406;2023-04-03T10:11:17;10.20;83.10
33815;DHT22;20121;51.910;8.406;2023-04-03T10:14:00;10.20;83.40
33815;DHT22;20121;51.910;8.406;2023-04-03T10:16:38;10.10;80.80
33815;DHT22;20121;51.910;8.406;2023-04-03T10:22:03;10.00;81.30
33815;DHT22;20121;51.910;8.406;2023-04-03T10:27:44;9.60;81.80
33815;DHT22;20121;51.910;8.406;2023-04-03T10:30:21;9.70;83.40
33815;DHT22;20121;51.910;8.406;2023-04-03T10:56:30;9.60;81.20
33815;DHT22;20121;51.910;8.406;2023-04-03T11:01:46;10.10;82.30
33815;DHT22;20121;51.910;8.406;2023-04-03T11:04:16;10.40;84.00
33815;DHT22;20121;51.910;8.406;2023-04-03T11:07:00;10.60;81.00
33815;DHT22;20121;51.910;8.406;2023-04-03T11:09:35;10.60;80.00
33815;DHT22;20121;51.910;8.406;2023-04-03T11:12:10;10.40;77.60
33815;DHT22;20121;51.910;8.406;2023-04-03T11:14:38;10.10;79.60
33815;DHT22;20121;51.910;8.406;2023-04-03T11:22:41;9.00;80.30
33815;DHT22;20121;51.910;8.406;2023-04-03T11:28:04;9.30;84.80
33815;DHT22;20121;51.910;8.406;2023-04-03T11:36:32;9.90;79.20
33815;DHT22;20121;51.910;8.406;2023-04-03T11:39:20;10.00;78.70
33815;DHT22;20121;51.910;8.406;2023-04-03T11:41:47;10.20;78.80
33815;DHT22;20121;51.910;8.406;2023-04-03T11:44:37;10.20;80.60
33815;DHT22;20121;51.910;8.406;2023-04-03T11:47:05;10.30;81.50
33815;DHT22;20121;51.910;8.406;2023-04-03T12:00:58;9.50;80.70
33815;DHT22;20121;51.910;8.406;2023-04-03T12:08:54;9.50;83.30
33815;DHT22;20121;51.910;8.406;2023-04-03T12:11:31;9.80;83.70
33815;DHT22;20121;51.910;8.406;2023-04-03T12:16:45;10.30;81.20
33815;DHT22;20121;51.910;8.406;2023-04-03T12:35:05;10.10;81.20
33815;DHT22;20121;51.910;8.406;2023-04-03T12:45:52;9.20;82.70
33815;DHT22;20121;51.910;8.406;2023-04-03T12:48:25;9.10;83.20
33815;DHT22;20121;51.910;8.406;2023-04-03T12:50:52;9.10;82.90
33815;DHT22;20121;51.910;8.406;2023-04-03T12:53:28;9.00;83.40
33815;DHT22;20121;51.910;8.406;2023-04-03T12:56:21;8.90;81.50
33815;DHT22;20121;51.910;8.406;2023-04-03T12:58:48;8.60;82.40
33815;DHT22;20121;51.910;8.406;2023-04-03T13:01:17;8.40;82.20
33815;DHT22;20121;51.910;8.406;2023-04-03T13:03:50;8.50;82.80
33815;DHT22;20121;51.910;8.406;2023-04-03T13:06:24;8.80;84.10
33815;DHT22;20121;51.910;8.406;2023-04-03T13:08:56;9.10;83.60
33815;DHT22;20121;51.910;8.406;2023-04-03T13:11:23;9.30;84.30
33815;DHT22;20121;51.910;8.406;2023-04-03T13:14:03;9.40;82.50
33815;DHT22;20121;51.910;8.406;2023-04-03T13:16:31;9.40;81.70
33815;DHT22;20121;51.910;8.406;2023-04-03T13:18:57;9.40;80.40
33815;DHT22;20121;51.910;8.406;2023-04-03T13:21:27;9.50;81.30
33815;DHT22;20121;51.910;8.406;2023-04-03T13:24:01;9.70;81.40
33815;DHT22;20121;51.910;8.406;2023-04-03T13:26:31;9.80;82.10
33815;DHT22;20121;51.910;8.406;2023-04-03T13:29:03;10.00;78.80
33815;DHT22;20121;51.910;8.406;2023-04-03T13:31:31;9.90;79.10
33815;DHT22;20121;51.910;8.406;2023-04-03T13:36:40;9.90;80.40
33815;DHT22;20121;51.910;8.406;2023-04-03T13:41:49;10.00;77.80
33815;DHT22;20121;51.910;8.406;2023-04-03T13:44:28;10.00;76.60
33815;DHT22;20121;51.910;8.406;2023-04-03T13:47:00;10.00;77.60
33815;DHT22;20121;51.910;8.406;2023-04-03T13:49:35;9.80;79.10
33815;DHT22;20121;51.910;8.406;2023-04-03T13:52:18;9.50;81.00
33815;DHT22;20121;51.910;8.406;2023-04-03T13:54:47;9.50;81.30
33815;DHT22;20121;51.910;8.406;2023-04-03T13:57:17;9.60;81.00
33815;DHT22;20121;51.910;8.406;2023-04-03T13:59:42;9.70;81.70
33815;DHT22;20121;51.910;8.406;2023-04-03T14:07:05;9.50;80.30
33815;DHT22;20121;51.910;8.406;2023-04-03T14:09:31;9.30;81.40
33815;DHT22;20121;51.910;8.406;2023-04-03T14:12:06;9.20;81.00
33815;DHT22;20121;51.910;8.406;2023-04-03T14:14:35;9.00;80.80
33815;DHT22;20121;51.910;8.406;2023-04-03T14:17:03;8.90;81.40
33815;DHT22;20121;51.910;8.406;2023-04-03T14:19:36;8.90;82.10
33815;DHT22;20121;51.910;8.406;2023-04-03T14:22:21;9.00;81.50
33815;DHT22;20121;51.910;8.406;2023-04-03T14:24:50;9.10;81.30
33815;DHT22;20121;51.910;8.406;2023-04-03T14:27:19;9.00;81.00
33815;DHT22;20121;51.910;8.406;2023-04-03T14:29:45;8.80;80.40
33815;DHT22;20121;51.910;8.406;2023-04-03T14:32:13;8.60;80.30
33815;DHT22;20121;51.910;8.406;2023-04-03T14:34:39;8.60;82.50
33815;DHT22;20121;51.910;8.406;2023-04-03T14:37:09;8.60;82.50
33815;DHT22;20121;51.910;8.406;2023-04-03T14:39:35;8.60;83.00
33815;DHT22;20121;51.910;8.406;2023-04-03T14:42:00;8.60;82.90
33815;DHT22;20121;51.910;8.406;2023-04-03T14:44:26;8.60;83.20
33815;DHT22;20121;51.910;8.406;2023-04-03T14:46:51;8.60;83.30
33815;DHT22;20121;51.910;8.406;2023-04-03T14:49:24;8.50;83.40
33815;DHT22;20121;51.910;8.406;2023-04-03T14:51:50;8.50;85.00
33815;DHT22;20121;51.910;8.406;2023-04-03T14:54:18;8.50;81.20
33815;DHT22;20121;51.910;8.406;2023-04-03T14:56:47;8.40;82.00
33815;DHT22;20121;51.910;8.406;2023-04-03T14:59:14;8.40;82.70
33815;DHT22;20121;51.910;8.406;2023-04-03T15:01:40;8.40;83.80
33815;DHT22;20121;51.910;8.406;2023-04-03T15:04:13;8.50;82.70
33815;DHT22;20121;51.910;8.406;2023-04-03T15:06:39;8.50;82.10
33815;DHT22;20121;51.910;8.406;2023-04-03T15:09:09;8.50;82.10
33815;DHT22;20121;51.910;8.406;2023-04-03T15:11:36;8.50;82.90
33815;DHT22;20121;51.910;8.406;2023-04-03T15:14:02;8.50;82.30
33815;DHT22;20121;51.910;8.406;2023-04-03T15:16:28;8.50;81.80
33815;DHT22;20121;51.910;8.406;2023-04-03T15:18:53;8.50;81.30
33815;DHT22;20121;51.910;8.406;2023-04-03T15:21:19;8.40;80.20
33815;DHT22;20121;51.910;8.406;2023-04-03T15:23:44;8.40;81.00
33815;DHT22;20121;51.910;8.406;2023-04-03T15:26:10;8.30;81.00
33815;DHT22;20121;51.910;8.406;2023-04-03T15:28:39;8.20;82.00
33815;DHT22;20121;51.910;8.406;2023-04-03T15:31:05;8.20;82.30
33815;DHT22;20121;51.910;8.406;2023-04-03T15:33:32;8.20;81.60
33815;DHT22;20121;51.910;8.406;2023-04-03T15:35:59;8.20;81.70
33815;DHT22;20121;51.910;8.406;2023-04-03T15:38:25;8.10;80.70
33815;DHT22;20121;51.910;8.406;2023-04-03T15:40:50;8.10;82.10
33815;DHT22;20121;51.910;8.406;2023-04-03T15:43:16;8.20;83.20
33815;DHT22;20121;51.910;8.406;2023-04-03T15:45:43;8.20;83.40
33815;DHT22;20121;51.910;8.406;2023-04-03T15:48:10;8.20;83.10
33815;DHT22;20121;51.910;8.406;2023-04-03T15:50:36;8.20;82.70
33815;DHT22;20121;51.910;8.406;2023-04-03T15:53:02;8.20;83.20
33815;DHT22;20121;51.910;8.406;2023-04-03T15:55:33;8.10;82.50
33815;DHT22;20121;51.910;8.406;2023-04-03T15:57:59;8.10;82.90
33815;DHT22;20121;51.910;8.406;2023-04-03T16:00:25;8.10;94.00
33815;DHT22;20121;51.910;8.406;2023-04-03T16:02:55;7.90;82.20
33815;DHT22;20121;51.910;8.406;2023-04-03T16:05:22;7.70;81.90
33815;DHT22;20121;51.910;8.406;2023-04-03T16:07:48;7.60;82.70
33815;DHT22;20121;51.910;8.406;2023-04-03T16:10:15;7.50;82.90
33815;DHT22;20121;51.910;8.406;2023-04-03T16:12:41;7.50;83.30
33815;DHT22;20121;51.910;8.406;2023-04-03T16:15:07;7.50;84.40
33815;DHT22;20121;51.910;8.406;2023-04-03T16:17:34;7.50;85.00
33815;DHT22;20121;51.910;8.406;2023-04-03T16:20:01;7.50;84.50
33815;DHT22;20121;51.910;8.406;2023-04-03T16:22:28;7.50;84.10
33815;DHT22;20121;51.910;8.406;2023-04-03T16:24:54;7.50;83.60
33815;DHT22;20121;51.910;8.406;2023-04-03T16:27:21;7.50;83.60
33815;DHT22;20121;51.910;8.406;2023-04-03T16:29:47;7.50;83.90
33815;DHT22;20121;51.910;8.406;2023-04-03T16:32:13;7.50;83.90
33815;DHT22;20121;51.910;8.406;2023-04-03T16:34:39;7.50;83.80
33815;DHT22;20121;51.910;8.406;2023-04-03T16:37:06;7.40;83.40
33815;DHT22;20121;51.910;8.406;2023-04-03T16:39:34;7.40;84.20
33815;DHT22;20121;51.910;8.406;2023-04-03T16:42:00;7.40;84.30
33815;DHT22;20121;51.910;8.406;2023-04-03T16:44:25;7.40;83.20
33815;DHT22;20121;51.910;8.406;2023-04-03T16:46:51;7.40;84.20
33815;DHT22;20121;51.910;8.406;2023-04-03T16:49:17;7.30;84.60
33815;DHT22;20121;51.910;8.406;2023-04-03T16:51:43;7.40;85.20
33815;DHT22;20121;51.910;8.406;2023-04-03T16:54:08;7.40;85.30
33815;DHT22;20121;51.910;8.406;2023-04-03T16:56:36;7.40;85.00
33815;DHT22;20121;51.910;8.406;2023-04-03T16:59:02;7.40;85.00
33815;DHT22;20121;51.910;8.406;2023-04-03T17:01:27;7.40;84.70
33815;DHT22;20121;51.910;8.406;2023-04-03T17:03:53;7.40;84.00
33815;DHT22;20121;51.910;8.406;2023-04-03T17:06:20;7.30;84.10
33815;DHT22;20121;51.910;8.406;2023-04-03T17:08:47;7.30;84.20
33815;DHT22;20121;51.910;8.406;2023-04-03T17:11:14;7.20;84.10
33815;DHT22;20121;51.910;8.406;2023-04-03T17:13:40;7.10;84.50
33815;DHT22;20121;51.910;8.406;2023-04-03T17:16:08;7.10;85.00
33815;DHT22;20121;51.910;8.406;2023-04-03T17:18:35;7.10;86.10
33815;DHT22;20121;51.910;8.406;2023-04-03T17:21:02;7.00;85.00
33815;DHT22;20121;51.910;8.406;2023-04-03T17:23:28;7.00;85.00
33815;DHT22;20121;51.910;8.406;2023-04-03T17:25:55;6.90;85.30
33815;DHT22;20121;51.910;8.406;2023-04-03T17:28:21;6.90;86.10
33815;DHT22;20121;51.910;8.406;2023-04-03T17:30:56;6.80;86.60
33815;DHT22;20121;51.910;8.406;2023-04-03T17:33:22;6.70;85.90
33815;DHT22;20121;51.910;8.406;2023-04-03T17:35:48;6.70;86.00
33815;DHT22;20121;51.910;8.406;2023-04-03T17:38:13;6.60;86.50
33815;DHT22;20121;51.910;8.406;2023-04-03T17:40:39;6.60;87.00
33815;DHT22;20121;51.910;8.406;2023-04-03T17:43:04;6.50;87.30
33815;DHT22;20121;51.910;8.406;2023-04-03T17:45:30;6.50;87.10
33815;DHT22;20121;51.910;8.406;2023-04-03T17:47:56;6.40;87.00
33815;DHT22;20121;51.910;8.406;2023-04-03T17:50:22;6.40;95.60
33815;DHT22;20121;51.910;8.406;2023-04-03T17:52:47;6.40;87.10
33815;DHT22;20121;51.910;8.406;2023-04-03T17:55:13;6.30;87.30